WetterOnline ( http://www.wetteronline.de )

Wetter aktuell Feldberger Seenlandschaft

Aktuelles Wetter: Feldberg (115m)

6-stündlich | Neueste Meldungen
Ortszeit Temperatur Wetter
Do, 24.05. 14:00 23.1° C wolkenlos
Do, 24.05. 8:00 15.5° C wolkenlos
Do, 24.05. 2:00 13.1° C leicht bewölkt
Mi, 23.05. 20:00 18.1° C fast wolkenlos
Mi, 23.05. 14:00 21.4° C wolkenlos
Mi, 23.05. 8:00 15.0° C leicht bewölkt
Mi, 23.05. 2:00 10.9° C fast wolkenlos
Di, 22.05. 20:00 19.7° C fast wolkenlos
Ortszeit Temperatur Wetter
Do, 24.05. 19:00 21.6° C leicht bewölkt
Do, 24.05. 18:50 21.6° C leicht bewölkt
Do, 24.05. 18:40 22.3° C leicht bewölkt
Do, 24.05. 18:30 22.3° C wolkig
Do, 24.05. 18:20 22.3° C wolkig
Do, 24.05. 18:10 24.0° C leicht bewölkt
Do, 24.05. 18:00 23.7° C fast wolkenlos
Do, 24.05. 17:30 23.9° C fast wolkenlos
Do, 24.05. 17:00 23.5° C wolkenlos
Do, 24.05. 16:30 23.9° C wolkenlos
Do, 24.05. 16:00 24.0° C fast wolkenlos
Ortszeit Relative Feuchte Sichtweite
Do, 24.05. 14:00 37% 5.0 km
Do, 24.05. 8:00 65% 16 km
Do, 24.05. 2:00 71% 40 km
Mi, 23.05. 20:00 50% 12 km
Mi, 23.05. 14:00 36% 14 km
Mi, 23.05. 8:00 60% 17 km
Mi, 23.05. 2:00 82% 35 km
Di, 22.05. 20:00 46% 40 km
Ortszeit Relative Feuchte Sichtweite
Do, 24.05. 19:00 45% 14 km
Do, 24.05. 18:50 45% -
Do, 24.05. 18:40 44% -
Do, 24.05. 18:30 44% 18 km
Do, 24.05. 18:20 44% -
Do, 24.05. 18:10 37% -
Do, 24.05. 18:00 37% 8 km
Do, 24.05. 17:30 36% 10 km
Do, 24.05. 17:00 38% 7 km
Do, 24.05. 16:30 37% 8 km
Do, 24.05. 16:00 37% 8 km
Ortszeit Niederschlagsmenge Niederschlagsart
Do, 24.05. 14:00 0.0 l/m2 in 6 Std. -
Do, 24.05. 8:00 0.0 l/m2 in 12 Std. -
Do, 24.05. 2:00 0.0 l/m2 in 6 Std. -
Mi, 23.05. 20:00 0.0 l/m2 in 12 Std. -
Mi, 23.05. 14:00 0.0 l/m2 in 6 Std. -
Mi, 23.05. 8:00 0.0 l/m2 in 12 Std. -
Mi, 23.05. 2:00 0.0 l/m2 in 6 Std. -
Di, 22.05. 20:00 0.0 l/m2 in 12 Std. -
Ortszeit Niederschlagsmenge Niederschlagsart
Do, 24.05. 19:00 0.0 l/m2 in 1 Std. -
Do, 24.05. 18:50 keine Meldung -
Do, 24.05. 18:40 keine Meldung -
Do, 24.05. 18:30 0.0 l/m2 in 1 Std. -
Do, 24.05. 18:20 keine Meldung -
Do, 24.05. 18:10 keine Meldung -
Do, 24.05. 18:00 0.0 l/m2 in 1 Std. -
Do, 24.05. 17:30 0.0 l/m2 in 1 Std. -
Do, 24.05. 17:00 0.0 l/m2 in 1 Std. -
Do, 24.05. 16:30 0.0 l/m2 in 1 Std. -
Do, 24.05. 16:00 0.0 l/m2 in 1 Std. -
Ortszeit Stärke Spitze Richtung
km/h Bft. km/h Grad Sektor
Do, 24.05. 14:00 22 4 43 100° O
Do, 24.05. 8:00 14 3 25 90° O
Do, 24.05. 2:00 9 2 31 60° NO
Mi, 23.05. 20:00 20 4 39 30° NO
Mi, 23.05. 14:00 18 3 36 50° NO
Mi, 23.05. 8:00 13 3 24 70° O
Mi, 23.05. 2:00 7 2 25 40° NO
Di, 22.05. 20:00 15 3 28 50° NO
Ortszeit Stärke Spitze Richtung
km/h Bft. km/h Grad Sektor
Do, 24.05. 19:00 22 4 35 40° NO
Do, 24.05. 18:50 22 4 - 40° NO
Do, 24.05. 18:40 18 3 - 50° NO
Do, 24.05. 18:30 18 3 29 60° NO
Do, 24.05. 18:20 18 3 - 60° NO
Do, 24.05. 18:10 18 3 - 100° O
Do, 24.05. 18:00 18 3 36 100° O
Do, 24.05. 17:30 22 4 36 80° O
Do, 24.05. 17:00 24 4 41 80° O
Do, 24.05. 16:30 18 3 40 90° O
Do, 24.05. 16:00 24 4 37 100° O
Ortszeit Untergrenze Bedeckung Gattung
total tief tief mittel hoch
Do, 24.05. 14:00 - 0/8 0/8 - - -
Do, 24.05. 8:00 8400 m 0/8 0/8 - - -
Do, 24.05. 2:00 8100 m 3/8 0/8 - - -
Mi, 23.05. 20:00 9000 m 1/8 0/8 - - -
Mi, 23.05. 14:00 - 0/8 0/8 - - -
Mi, 23.05. 8:00 8400 m 5/8 0/8 - - -
Mi, 23.05. 2:00 8400 m 1/8 0/8 - - -
Di, 22.05. 20:00 8700 m 2/8 0/8 - - -
Ortszeit Bedeckungsgrad in Achtel und Wolkenuntergrenze
Do, 24.05. 19:00 2(1800m) 5(8400m)
Do, 24.05. 18:50 2(1800m) 5(8400m)
Do, 24.05. 18:40 4(1800m)
Do, 24.05. 18:30 4(1800m) 5(9000m)
Do, 24.05. 18:20 4(1800m) 5(9000m)
Do, 24.05. 18:10 1(1800m) 4(9000m)
Do, 24.05. 18:00 2(8700m) 4(9000m)
Do, 24.05. 17:30 2(9000m) 2(9000m)
Do, 24.05. 17:00 1(1800m) 4(9000m)
Do, 24.05. 16:30 keine Wolken
Do, 24.05. 16:00 1(7200m)
Ortszeit Luftdruck NN (hPa) Tendenz (hPa in 3 Std.)
Do, 24.05. 14:00 1024 - 1,1
Do, 24.05. 8:00 1026 + 0,3
Do, 24.05. 2:00 1025 + 0,5
Mi, 23.05. 20:00 1024 + 0,6
Mi, 23.05. 14:00 1023 + 0,6
Mi, 23.05. 8:00 1022 + 2,0
Mi, 23.05. 2:00 1019 + 0,9
Di, 22.05. 20:00 1016 + 0,5
Ortszeit Luftdruck NN (hPa) Tendenz (hPa in 3 Std.)
Do, 24.05. 19:00 1022 - 0,9
Do, 24.05. 18:50 1022 keine Meldung
Do, 24.05. 18:40 1022 keine Meldung
Do, 24.05. 18:30 1022 - 1,3
Do, 24.05. 18:20 1022 keine Meldung
Do, 24.05. 18:10 1022 keine Meldung
Do, 24.05. 18:00 1022 - 1,7
Do, 24.05. 17:30 1022 - 1,7
Do, 24.05. 17:00 1022 - 2,0
Do, 24.05. 16:30 1023 - 2,2
Do, 24.05. 16:00 1023 - 1,9
Ortszeit Schneehöhe (cm)
Do, 24.05. 14:00 -
Do, 24.05. 8:00 -
Do, 24.05. 2:00 -
Mi, 23.05. 20:00 -
Mi, 23.05. 14:00 -
Mi, 23.05. 8:00 -
Mi, 23.05. 2:00 -
Di, 22.05. 20:00 -
Ortszeit Schneehöhe (cm)
Do, 24.05. 19:00 -
Do, 24.05. 18:50 -
Do, 24.05. 18:40 -
Do, 24.05. 18:30 -
Do, 24.05. 18:20 -
Do, 24.05. 18:10 -
Do, 24.05. 18:00 -
Do, 24.05. 17:30 -
Do, 24.05. 17:00 -
Do, 24.05. 16:30 -
Do, 24.05. 16:00 -
Link zu dieser Seite / Seite empfehlen

Das Wetter in ...